< < Back
Terminal Aerodrome Forecast


Current Version              Previous Versions:   1  2  3  4  5  6  7  8  9  

Terminal Aerodrome Forecast

035
FTUS44 KMOB 290914 AAB
TAFPNS
TAF AMD
KPNS 290914Z 2909/3006 08004KT P6SM BKN006
     FM291200 10006KT P6SM SCT015
     FM291800 15010KT P6SM SCT040
      TEMPO 2919/2922 VRB15G25KT 3SM TSRA SCT025CB BKN040=

Latest METAR

070
SAUS70 KWBC 291200
MTRPNS
METAR KPNS 291153Z 04003KT 10SM BKN010 22/20 A3011 RMK AO2 SLP195
T02170200 10222 20211 53020


USA.gov is the U.S. government's official web portal to all federal, state and local government web resources and services.